METAR Data
IDs: Format: Raw Decoded Include TAF

Data at: 1919 UTC 31 Jul 2021

METAR for:KDMW (Carroll Cnty Rgnl, MD, US)
Text:KDMW 311915Z AUTO 27004KT 10SM CLR 27/13 A3000 RMK AO2
Temperature: 27.0°C ( 81°F)
Dewpoint: 13.0°C ( 55°F) [RH = 42%]
Pressure (altimeter):30.00 inches Hg (1016.0 mb)
Winds:from the W (270 degrees) at 5 MPH (4 knots; 2.1 m/s)
Visibility:10 or more sm (16+ km)
Ceiling:at least 12,000 feet AGL
Clouds:sky clear below 12,000 feet AGL
QC Flag:automated observation with no human augmentation